Maimiti — PBIJ — position and weather

sailwx.info

Track history (hours):
 
Tides and Currents Weather Stations Pressure Air Temp Water Temp Dewpoint Dewpoint Depression Visibility Wind Speed Wind Dir Waves Ship Positions

Maimiti

Last reported at 2017-Mar-23 11:33 UTC. Time now 2017-Mar-23 12:26 UTC.
Position N 51°28' E 003°41'.

Length 35 m; draft 6.7 m.

Type: Tug. MMSI: 244850959.

Date/timePositionNaut miles runAvg speedWind from/ knotsBaromVisibWave heightAir tempDewpointWater temp
2017-Mar-23 11:33N 51°28' E 003°41'0 0.1
2017-Mar-23 10:33N 51°28' E 003°40'0 0.1
2017-Mar-23 09:33N 51°28' E 003°41'0 0.0
2017-Mar-23 08:30N 51°28' E 003°41'0 0.0
2017-Mar-23 07:29N 51°28' E 003°40'0 0.0
2017-Mar-23 06:33N 51°28' E 003°40'0 0.0
2017-Mar-23 05:16N 51°28' E 003°41'0 0.0
2017-Mar-23 04:33N 51°28' E 003°41'0 0.0
2017-Mar-23 03:33N 51°28' E 003°40'0 0.0
2017-Mar-23 02:33N 51°28' E 003°40'0 0.0
2017-Mar-23 01:25N 51°28' E 003°41'0 0.0
2017-Mar-23 00:30N 51°28' E 003°41'0 0.0
2017-Mar-22 17:25N 51°28' E 003°40'0 0.0
2017-Mar-22 01:33N 51°27' E 003°41'2 1.6
2017-Mar-22 00:33N 51°28' E 003°43'2 0.0
2017-Mar-20 14:11N 51°28' E 003°40'0 0.0
2017-Mar-20 13:32N 51°28' E 003°40'0 0.0
2017-Mar-20 12:32N 51°28' E 003°40'10 0.3
2017-Mar-19 00:32N 51°20' E 003°49'4 3.5
2017-Mar-18 23:30N 51°16' E 003°50'7 7.9
2017-Mar-18 22:34N 51°09' E 003°47'1 1.0
2017-Mar-18 21:34N 51°10' E 003°47'5 4.8
2017-Mar-18 20:30N 51°15' E 003°49'4 3.8
2017-Mar-18 19:29N 51°19' E 003°50'0 0.1
2017-Mar-18 18:33N 51°19' E 003°50'0 0.4
2017-Mar-18 17:31N 51°19' E 003°50'1 0.9
2017-Mar-18 16:11N 51°20' E 003°49'2 0.3
2017-Mar-18 10:27N 51°21' E 003°51'5 5.1
2017-Mar-18 09:30N 51°22' E 003°44'6 0.2
2017-Mar-17 00:32N 51°28' E 003°40'0 0.0
2017-Mar-15 17:19N 51°28' E 003°40'2 0.5
2017-Mar-15 13:33N 51°27' E 003°43'2 1.8
2017-Mar-15 12:31N 51°28' E 003°40'0 0.0
2017-Mar-15 11:33N 51°28' E 003°40'0 0.0
2017-Mar-15 10:33N 51°28' E 003°40'0 0.0
2017-Mar-15 09:33N 51°28' E 003°40'0 0.0
2017-Mar-15 08:32N 51°28' E 003°40'0 0.0
2017-Mar-15 07:33N 51°28' E 003°40'1 1.3
2017-Mar-15 06:32N 51°28' E 003°42'0 0.0
2017-Mar-15 05:31N 51°28' E 003°42'0 0.0
2017-Mar-15 04:30N 51°28' E 003°42'0 0.0
2017-Mar-15 03:33N 51°28' E 003°42'0 0.0
2017-Mar-15 02:33N 51°28' E 003°42'0 0.0
2017-Mar-15 01:33N 51°28' E 003°42'0 0.0
2017-Mar-15 00:33N 51°28' E 003°42'0 0.0
2017-Mar-14 23:30N 51°28' E 003°42'1 0.8
2017-Mar-14 22:32N 51°28' E 003°42'9 8.9
2017-Mar-14 21:33N 51°20' E 003°49'3 2.6
2017-Mar-14 20:34N 51°18' E 003°50'7 6.5
2017-Mar-14 19:33N 51°11' E 003°48'0 0.4
2017-Mar-14 18:33N 51°11' E 003°48'4 4.4
2017-Mar-14 17:34N 51°15' E 003°50'4 4.1
2017-Mar-14 16:33N 51°20' E 003°49'1 0.5
2017-Mar-14 15:33N 51°20' E 003°49'2 2.0
2017-Mar-14 14:34N 51°21' E 003°52'0 0.1
2017-Mar-14 13:33N 51°21' E 003°52'0 0.0
2017-Mar-14 12:33N 51°21' E 003°52'0 0.0
2017-Mar-14 11:33N 51°21' E 003°52'0 0.1
2017-Mar-14 10:33N 51°21' E 003°52'0 0.0
2017-Mar-14 09:33N 51°21' E 003°52'0 0.0
2017-Mar-14 08:33N 51°21' E 003°52'0 0.0
2017-Mar-14 07:33N 51°21' E 003°52'0 0.0
2017-Mar-14 06:33N 51°21' E 003°52'0 0.1
2017-Mar-14 05:33N 51°21' E 003°52'0 0.1
2017-Mar-14 04:33N 51°21' E 003°52'0 0.1
2017-Mar-14 03:33N 51°21' E 003°52'0 0.0
2017-Mar-14 02:32N 51°21' E 003°52'0 0.0
2017-Mar-14 01:33N 51°21' E 003°52'0 0.0
2017-Mar-14 00:33N 51°21' E 003°52'0 0.0
2017-Mar-13 23:33N 51°21' E 003°52'0 0.0
2017-Mar-13 22:32N 51°21' E 003°52'0 0.1
2017-Mar-13 21:33N 51°21' E 003°52'0 0.1
2017-Mar-13 20:33N 51°21' E 003°52'0 0.0
2017-Mar-13 19:33N 51°21' E 003°52'0 0.1
2017-Mar-13 18:33N 51°21' E 003°52'0 0.1
2017-Mar-13 17:33N 51°21' E 003°52'0 0.0
2017-Mar-13 16:33N 51°21' E 003°52'0 0.1
2017-Mar-13 15:33N 51°21' E 003°51'2 2.3
2017-Mar-13 14:33N 51°21' E 003°48'2 1.8
2017-Mar-13 13:33N 51°22' E 003°45'7 6.6
2017-Mar-13 12:33N 51°28' E 003°40'  
Track history (hours):
 
Tides and Currents Weather Stations Pressure Air Temp Water Temp Dewpoint Dewpoint Depression Visibility Wind Speed Wind Dir Waves Ship Positions

Maimiti

Last reported at 2017-Mar-23 11:33 UTC. Time now 2017-Mar-23 12:26 UTC.
Position N 51°28' E 003°41'.

Length 35 m; draft 6.7 m.

Type: Tug. MMSI: 244850959.

Date/timePositionNaut miles runAvg speedWind from/ knotsBaromVisibWave heightAir tempDewpointWater temp
2017-Mar-23 11:33N 51°28' E 003°41'0 0.1
2017-Mar-23 10:33N 51°28' E 003°40'0 0.1
2017-Mar-23 09:33N 51°28' E 003°41'0 0.0
2017-Mar-23 08:30N 51°28' E 003°41'0 0.0
2017-Mar-23 07:29N 51°28' E 003°40'0 0.0
2017-Mar-23 06:33N 51°28' E 003°40'0 0.0
2017-Mar-23 05:16N 51°28' E 003°41'0 0.0
2017-Mar-23 04:33N 51°28' E 003°41'0 0.0
2017-Mar-23 03:33N 51°28' E 003°40'0 0.0
2017-Mar-23 02:33N 51°28' E 003°40'0 0.0
2017-Mar-23 01:25N 51°28' E 003°41'0 0.0
2017-Mar-23 00:30N 51°28' E 003°41'0 0.0
2017-Mar-22 17:25N 51°28' E 003°40'0 0.0
2017-Mar-22 01:33N 51°27' E 003°41'2 1.6
2017-Mar-22 00:33N 51°28' E 003°43'2 0.0
2017-Mar-20 14:11N 51°28' E 003°40'0 0.0
2017-Mar-20 13:32N 51°28' E 003°40'0 0.0
2017-Mar-20 12:32N 51°28' E 003°40'10 0.3
2017-Mar-19 00:32N 51°20' E 003°49'4 3.5
2017-Mar-18 23:30N 51°16' E 003°50'7 7.9
2017-Mar-18 22:34N 51°09' E 003°47'1 1.0
2017-Mar-18 21:34N 51°10' E 003°47'5 4.8
2017-Mar-18 20:30N 51°15' E 003°49'4 3.8
2017-Mar-18 19:29N 51°19' E 003°50'0 0.1
2017-Mar-18 18:33N 51°19' E 003°50'0 0.4
2017-Mar-18 17:31N 51°19' E 003°50'1 0.9
2017-Mar-18 16:11N 51°20' E 003°49'2 0.3
2017-Mar-18 10:27N 51°21' E 003°51'5 5.1
2017-Mar-18 09:30N 51°22' E 003°44'6 0.2
2017-Mar-17 00:32N 51°28' E 003°40'0 0.0
2017-Mar-15 17:19N 51°28' E 003°40'2 0.5
2017-Mar-15 13:33N 51°27' E 003°43'2 1.8
2017-Mar-15 12:31N 51°28' E 003°40'0 0.0
2017-Mar-15 11:33N 51°28' E 003°40'0 0.0
2017-Mar-15 10:33N 51°28' E 003°40'0 0.0
2017-Mar-15 09:33N 51°28' E 003°40'0 0.0
2017-Mar-15 08:32N 51°28' E 003°40'0 0.0
2017-Mar-15 07:33N 51°28' E 003°40'1 1.3
2017-Mar-15 06:32N 51°28' E 003°42'0 0.0
2017-Mar-15 05:31N 51°28' E 003°42'0 0.0
2017-Mar-15 04:30N 51°28' E 003°42'0 0.0
2017-Mar-15 03:33N 51°28' E 003°42'0 0.0
2017-Mar-15 02:33N 51°28' E 003°42'0 0.0
2017-Mar-15 01:33N 51°28' E 003°42'0 0.0
2017-Mar-15 00:33N 51°28' E 003°42'0 0.0
2017-Mar-14 23:30N 51°28' E 003°42'1 0.8
2017-Mar-14 22:32N 51°28' E 003°42'9 8.9
2017-Mar-14 21:33N 51°20' E 003°49'3 2.6
2017-Mar-14 20:34N 51°18' E 003°50'7 6.5
2017-Mar-14 19:33N 51°11' E 003°48'0 0.4
2017-Mar-14 18:33N 51°11' E 003°48'4 4.4
2017-Mar-14 17:34N 51°15' E 003°50'4 4.1
2017-Mar-14 16:33N 51°20' E 003°49'1 0.5
2017-Mar-14 15:33N 51°20' E 003°49'2 2.0
2017-Mar-14 14:34N 51°21' E 003°52'0 0.1
2017-Mar-14 13:33N 51°21' E 003°52'0 0.0
2017-Mar-14 12:33N 51°21' E 003°52'0 0.0
2017-Mar-14 11:33N 51°21' E 003°52'0 0.1
2017-Mar-14 10:33N 51°21' E 003°52'0 0.0
2017-Mar-14 09:33N 51°21' E 003°52'0 0.0
2017-Mar-14 08:33N 51°21' E 003°52'0 0.0
2017-Mar-14 07:33N 51°21' E 003°52'0 0.0
2017-Mar-14 06:33N 51°21' E 003°52'0 0.1
2017-Mar-14 05:33N 51°21' E 003°52'0 0.1
2017-Mar-14 04:33N 51°21' E 003°52'0 0.1
2017-Mar-14 03:33N 51°21' E 003°52'0 0.0
2017-Mar-14 02:32N 51°21' E 003°52'0 0.0
2017-Mar-14 01:33N 51°21' E 003°52'0 0.0
2017-Mar-14 00:33N 51°21' E 003°52'0 0.0
2017-Mar-13 23:33N 51°21' E 003°52'0 0.0
2017-Mar-13 22:32N 51°21' E 003°52'0 0.1
2017-Mar-13 21:33N 51°21' E 003°52'0 0.1
2017-Mar-13 20:33N 51°21' E 003°52'0 0.0
2017-Mar-13 19:33N 51°21' E 003°52'0 0.1
2017-Mar-13 18:33N 51°21' E 003°52'0 0.1
2017-Mar-13 17:33N 51°21' E 003°52'0 0.0
2017-Mar-13 16:33N 51°21' E 003°52'0 0.1
2017-Mar-13 15:33N 51°21' E 003°51'2 2.3
2017-Mar-13 14:33N 51°21' E 003°48'2 1.8
2017-Mar-13 13:33N 51°22' E 003°45'7 6.6
2017-Mar-13 12:33N 51°28' E 003°40'  

Dump ship's entire track history